Time;durP1;ratioP1;P1;durP2;ratioP2;P2;SDS_P1;SDS_P2;PMS_P1;PMS_P2;Temp;Humidity;BMP_temperature;BMP_pressure;BME280_temperature;BME280_humidity;BME280_pressure;Samples;Min_cycle;Max_cycle;Signal;HPM_P1;HPM_P2
2023/02/02 00:01:32;;;;;;;10.57;6.68;;;7.90;96.70;;;;;;4984713;28;20038;-74
2023/02/02 00:04:01;;;;;;;11.00;7.30;;;7.90;96.70;;;;;;4986012;28;20042;-74
2023/02/02 00:06:30;;;;;;;10.48;6.72;;;7.90;96.70;;;;;;4983643;28;20055;-73
2023/02/02 00:09:01;;;;;;;11.15;7.18;;;7.90;96.70;;;;;;4984892;28;20146;-73
2023/02/02 00:11:29;;;;;;;11.35;6.43;;;7.80;96.70;;;;;;4985461;28;20133;-74
2023/02/02 00:13:59;;;;;;;9.57;6.00;;;7.80;96.70;;;;;;4986572;28;20050;-73
2023/02/02 00:16:38;;;;;;;8.38;5.50;;;7.80;96.70;;;;;;4981281;28;20062;-74
2023/02/02 00:19:09;;;;;;;7.65;5.32;;;7.80;96.70;;;;;;4979131;28;20085;-73
2023/02/02 00:21:37;;;;;;;8.98;5.15;;;7.70;96.70;;;;;;4983767;28;20559;-74
2023/02/02 00:24:07;;;;;;;7.57;4.95;;;7.60;96.70;;;;;;4985578;28;20042;-73
2023/02/02 00:26:35;;;;;;;8.15;4.88;;;7.60;96.70;;;;;;4984464;28;20401;-74
2023/02/02 00:29:05;;;;;;;7.28;4.95;;;7.60;96.70;;;;;;4981321;28;20038;-72
2023/02/02 00:31:35;;;;;;;8.40;4.85;;;7.60;96.70;;;;;;4984682;28;20138;-72
2023/02/02 00:34:04;;;;;;;7.68;4.72;;;7.50;96.70;;;;;;4984844;28;20046;-73
2023/02/02 00:36:32;;;;;;;7.90;4.93;;;7.50;96.70;;;;;;4984408;28;20109;-73
2023/02/02 00:39:01;;;;;;;7.78;4.50;;;7.50;96.70;;;;;;4981447;28;20057;-72
2023/02/02 00:41:29;;;;;;;6.00;4.60;;;7.50;96.70;;;;;;4972073;28;20488;-73
2023/02/02 00:46:46;;;;;;;8.90;4.45;;;7.40;96.70;;;;;;4977399;28;20113;-72
2023/02/02 00:49:14;;;;;;;8.05;4.55;;;7.40;96.70;;;;;;4983864;28;20046;-72
2023/02/02 00:51:43;;;;;;;9.43;4.75;;;7.40;96.70;;;;;;4983486;28;20050;-73
2023/02/02 00:54:13;;;;;;;6.32;4.40;;;7.40;96.70;;;;;;4983743;28;20120;-72
2023/02/02 00:56:41;;;;;;;7.28;4.30;;;7.30;96.70;;;;;;4983301;28;20478;-73
2023/02/02 00:59:11;;;;;;;7.97;5.18;;;7.40;96.70;;;;;;4971196;28;20066;-73
2023/02/02 01:01:40;;;;;;;7.43;5.13;;;7.30;96.70;;;;;;4978197;28;20042;-73
2023/02/02 01:04:09;;;;;;;10.45;5.35;;;7.20;96.70;;;;;;4983035;28;20054;-73
2023/02/02 01:06:40;;;;;;;6.07;4.50;;;7.20;96.70;;;;;;4974833;28;20554;-74
2023/02/02 01:09:08;;;;;;;8.25;4.95;;;7.10;96.70;;;;;;4982852;28;20061;-73
2023/02/02 01:11:37;;;;;;;8.50;4.35;;;7.10;96.70;;;;;;4984609;28;20042;-73
2023/02/02 01:14:05;;;;;;;6.97;4.90;;;7.10;96.70;;;;;;4983376;28;20530;-73
2023/02/02 01:16:34;;;;;;;6.25;4.50;;;7.10;96.70;;;;;;4985965;28;20042;-78
2023/02/02 01:19:05;;;;;;;7.68;4.82;;;7.10;96.70;;;;;;4955639;28;20051;-74
2023/02/02 01:21:35;;;;;;;6.82;4.95;;;7.10;96.70;;;;;;4983343;28;20042;-72
2023/02/02 01:24:04;;;;;;;8.13;4.50;;;7.10;96.70;;;;;;4971203;28;20038;-73
2023/02/02 01:26:33;;;;;;;10.55;5.25;;;7.20;96.70;;;;;;4983246;28;20500;-73
2023/02/02 01:29:05;;;;;;;9.10;4.90;;;7.20;96.70;;;;;;4982695;28;20042;-73
2023/02/02 01:31:33;;;;;;;7.45;5.10;;;7.20;96.70;;;;;;4983701;28;20050;-73
2023/02/02 01:34:02;;;;;;;9.07;5.07;;;7.20;96.70;;;;;;4983054;28;20101;-73
2023/02/02 01:36:31;;;;;;;8.88;5.18;;;7.20;96.70;;;;;;4983791;28;20042;-73
2023/02/02 01:39:01;;;;;;;9.48;5.32;;;7.20;96.70;;;;;;4982746;28;20046;-73
2023/02/02 01:41:29;;;;;;;8.75;5.60;;;7.20;96.70;;;;;;4982873;28;20145;-73
2023/02/02 01:43:59;;;;;;;9.25;5.55;;;7.30;96.70;;;;;;4966473;28;20149;-73
2023/02/02 01:46:30;;;;;;;7.60;4.95;;;7.20;96.70;;;;;;4981567;28;20136;-73
2023/02/02 01:49:03;;;;;;;8.00;5.03;;;7.10;96.70;;;;;;4982101;28;20054;-73
2023/02/02 01:51:40;;;;;;;6.68;4.70;;;7.10;96.70;;;;;;4983562;28;20460;-73
2023/02/02 01:54:15;;;;;;;7.07;4.85;;;7.10;96.70;;;;;;4978512;28;20480;-78
2023/02/02 01:56:49;;;;;;;7.80;4.97;;;7.10;96.70;;;;;;4983943;28;20042;-78
2023/02/02 01:59:18;;;;;;;9.38;5.55;;;7.10;96.70;;;;;;4975195;28;20069;-78
2023/02/02 02:01:47;;;;;;;10.70;6.40;;;7.10;96.70;;;;;;4978832;28;20117;-78
2023/02/02 02:04:17;;;;;;;10.70;4.60;;;7.20;96.70;;;;;;4983511;28;20090;-78
2023/02/02 02:06:47;;;;;;;7.80;5.00;;;7.20;96.70;;;;;;4983002;28;20504;-72
2023/02/02 02:09:17;;;;;;;9.30;5.65;;;7.20;96.70;;;;;;4982154;28;20054;-77
2023/02/02 02:11:45;;;;;;;10.95;4.90;;;7.20;96.70;;;;;;4975523;28;20129;-78
2023/02/02 02:17:22;;;;;;;10.05;5.50;;;7.20;96.70;;;;;;4981030;28;20455;-78
2023/02/02 02:27:08;;;;;;;10.60;5.80;;;7.10;96.70;;;;;;4940160;28;20165;-78
2023/02/02 02:30:09;;;;;;;9.27;6.13;;;7.00;96.70;;;;;;4979342;28;20047;-78
2023/02/02 02:32:47;;;;;;;9.90;6.07;;;7.00;96.70;;;;;;4989346;28;20131;-79
2023/02/02 02:35:25;;;;;;;8.77;5.18;;;6.90;96.70;;;;;;4976548;28;20062;-78
2023/02/02 02:37:59;;;;;;;8.68;5.60;;;7.00;96.70;;;;;;4981869;28;20093;-79
2023/02/02 02:40:35;;;;;;;14.30;6.75;;;7.00;96.70;;;;;;4981992;28;20078;-76
2023/02/02 02:43:08;;;;;;;10.63;6.43;;;7.00;96.70;;;;;;4977654;28;20053;-75
2023/02/02 02:45:38;;;;;;;9.45;5.38;;;6.90;96.70;;;;;;4981696;28;20070;-75
2023/02/02 02:48:10;;;;;;;8.57;5.78;;;6.90;96.70;;;;;;4981710;28;20298;-75
2023/02/02 02:50:38;;;;;;;13.02;6.25;;;6.90;96.70;;;;;;4975455;28;20052;-74
2023/02/02 02:53:11;;;;;;;9.52;5.88;;;6.80;96.70;;;;;;4979144;28;20050;-75
2023/02/02 02:55:47;;;;;;;8.45;5.63;;;6.80;96.70;;;;;;4981400;28;20062;-75
2023/02/02 02:58:25;;;;;;;9.80;5.70;;;6.70;96.70;;;;;;4981568;28;20521;-75
2023/02/02 03:01:02;;;;;;;10.70;5.95;;;6.60;96.70;;;;;;4982326;28;20524;-77
2023/02/02 03:03:45;;;;;;;7.78;4.75;;;6.60;96.70;;;;;;4982759;28;20089;-76
2023/02/02 03:06:20;;;;;;;7.43;4.43;;;6.60;96.70;;;;;;4974837;28;20050;-76
2023/02/02 03:08:53;;;;;;;6.40;4.32;;;6.60;96.70;;;;;;4976041;28;20046;-77
2023/02/02 03:11:21;;;;;;;6.82;4.30;;;6.60;96.70;;;;;;4980349;28;20117;-77
2023/02/02 03:13:50;;;;;;;7.68;4.88;;;6.60;96.70;;;;;;4973100;28;20097;-76
2023/02/02 03:16:18;;;;;;;8.15;4.10;;;6.60;96.70;;;;;;4975593;28;20053;-77
2023/02/02 03:18:48;;;;;;;8.38;4.10;;;6.60;96.70;;;;;;4983209;28;20054;-77
2023/02/02 03:21:16;;;;;;;6.68;4.07;;;6.60;96.70;;;;;;4980086;28;20129;-77
2023/02/02 03:23:45;;;;;;;6.72;3.70;;;6.60;96.70;;;;;;4983253;28;20038;-77
2023/02/02 03:26:14;;;;;;;6.00;4.22;;;6.50;96.70;;;;;;4981721;28;20061;-77
2023/02/02 03:28:42;;;;;;;7.70;4.10;;;6.50;96.70;;;;;;4981697;28;20500;-77
2023/02/02 03:31:10;;;;;;;5.93;3.80;;;6.40;96.70;;;;;;4980361;28;20078;-76
2023/02/02 03:33:39;;;;;;;7.55;3.83;;;6.40;96.70;;;;;;4983609;28;20057;-77
2023/02/02 03:36:09;;;;;;;5.82;4.22;;;6.40;96.70;;;;;;4980960;28;20515;-77
2023/02/02 03:38:37;;;;;;;5.80;3.25;;;6.40;96.70;;;;;;4983390;28;20058;-78
2023/02/02 03:41:06;;;;;;;5.05;3.50;;;6.40;96.70;;;;;;4980246;28;20046;-77
2023/02/02 03:43:34;;;;;;;8.88;4.63;;;6.30;96.70;;;;;;4981970;28;20104;-78
2023/02/02 03:46:04;;;;;;;6.97;3.95;;;6.30;96.70;;;;;;4983836;28;20053;-77
2023/02/02 03:48:36;;;;;;;6.78;3.85;;;6.30;96.70;;;;;;4980174;28;20046;-76
2023/02/02 03:51:10;;;;;;;5.50;3.47;;;6.30;96.70;;;;;;4980154;28;20642;-78
2023/02/02 03:53:39;;;;;;;6.28;3.28;;;6.30;96.70;;;;;;4977919;28;20054;-77
2023/02/02 03:56:07;;;;;;;9.05;3.70;;;6.30;96.70;;;;;;4983273;28;20054;-77
2023/02/02 03:58:36;;;;;;;5.55;3.33;;;6.20;96.70;;;;;;4985193;28;20054;-78
2023/02/02 04:01:06;;;;;;;5.28;3.67;;;6.20;96.70;;;;;;4981896;28;20449;-77
2023/02/02 04:03:34;;;;;;;8.02;4.00;;;6.10;96.70;;;;;;4979751;28;20125;-77
2023/02/02 04:06:03;;;;;;;5.18;3.53;;;6.20;96.70;;;;;;4984850;28;20153;-78
2023/02/02 04:08:33;;;;;;;8.18;4.35;;;6.20;96.70;;;;;;4986543;28;20054;-77
2023/02/02 04:11:01;;;;;;;5.82;3.70;;;6.20;96.70;;;;;;4976995;28;20129;-76
2023/02/02 04:13:30;;;;;;;5.57;3.58;;;6.20;96.70;;;;;;4985040;28;20054;-77
2023/02/02 04:15:59;;;;;;;6.28;3.50;;;6.20;96.70;;;;;;4986352;28;20057;-78
2023/02/02 04:18:28;;;;;;;6.22;3.85;;;6.10;96.70;;;;;;4985712;28;20050;-77
2023/02/02 04:20:58;;;;;;;6.22;3.55;;;6.00;96.70;;;;;;4979634;28;20047;-78
2023/02/02 04:23:27;;;;;;;5.68;4.15;;;6.10;96.70;;;;;;4985174;28;20050;-77
2023/02/02 04:25:57;;;;;;;7.15;4.03;;;6.10;96.70;;;;;;4986088;28;20042;-77
2023/02/02 04:28:26;;;;;;;7.00;4.05;;;6.00;96.70;;;;;;4984515;28;20050;-78
2023/02/02 04:30:55;;;;;;;6.85;3.95;;;6.00;96.70;;;;;;4985296;28;20046;-78
2023/02/02 04:33:26;;;;;;;7.45;4.28;;;5.90;96.70;;;;;;4985032;28;20046;-79
2023/02/02 04:35:54;;;;;;;6.65;4.50;;;5.90;96.70;;;;;;4978032;28;20072;-78
2023/02/02 04:38:22;;;;;;;6.72;3.95;;;5.80;96.70;;;;;;4984066;28;20050;-78
2023/02/02 04:40:51;;;;;;;6.20;4.28;;;5.80;96.70;;;;;;4984356;28;20402;-78
2023/02/02 04:43:21;;;;;;;6.63;4.20;;;5.70;96.70;;;;;;4984445;28;20045;-78
2023/02/02 04:45:55;;;;;;;6.97;4.10;;;5.70;96.70;;;;;;4984113;28;20062;-77
2023/02/02 04:48:23;;;;;;;6.18;4.28;;;5.80;96.70;;;;;;4978396;28;20058;-79
2023/02/02 04:50:58;;;;;;;7.57;4.00;;;5.80;96.70;;;;;;4984493;28;20505;-79
2023/02/02 04:53:26;;;;;;;5.60;3.60;;;5.80;96.70;;;;;;4984211;28;20057;-77
2023/02/02 04:55:55;;;;;;;6.22;3.80;;;5.70;96.70;;;;;;4984361;28;20038;-78
2023/02/02 04:58:25;;;;;;;6.07;3.85;;;5.70;96.70;;;;;;4979702;28;20069;-78
2023/02/02 05:00:53;;;;;;;6.10;3.60;;;5.70;96.70;;;;;;4986033;28;20039;-77
2023/02/02 05:03:21;;;;;;;6.50;3.33;;;5.60;96.70;;;;;;4976594;28;20910;-78
2023/02/02 05:05:50;;;;;;;7.95;3.95;;;5.60;96.70;;;;;;4982993;28;20054;-79
2023/02/02 05:08:18;;;;;;;7.82;4.55;;;5.70;96.70;;;;;;4982378;28;20303;-78
2023/02/02 05:10:48;;;;;;;7.03;4.30;;;5.60;96.70;;;;;;4964194;28;20404;-77
2023/02/02 05:13:17;;;;;;;7.40;4.22;;;5.60;96.70;;;;;;4983913;28;20182;-78
2023/02/02 05:15:47;;;;;;;9.02;5.88;;;5.50;96.70;;;;;;4967935;28;20046;-77
2023/02/02 05:18:16;;;;;;;6.60;3.88;;;5.50;96.70;;;;;;4978837;28;20504;-78
2023/02/02 05:20:44;;;;;;;6.32;4.53;;;5.50;96.70;;;;;;4983205;28;20434;-78
2023/02/02 05:23:12;;;;;;;7.18;4.00;;;5.40;96.70;;;;;;4983466;28;20038;-76
2023/02/02 05:25:40;;;;;;;6.82;4.40;;;5.50;96.70;;;;;;4982965;28;20377;-77
2023/02/02 05:28:09;;;;;;;7.68;4.50;;;5.50;96.70;;;;;;4983575;28;20050;-77
2023/02/02 05:30:39;;;;;;;6.25;4.50;;;5.40;96.70;;;;;;4971619;28;20042;-78
2023/02/02 05:33:10;;;;;;;6.18;4.10;;;5.50;96.70;;;;;;4978760;28;20538;-78
2023/02/02 05:35:38;;;;;;;7.55;4.43;;;5.50;96.70;;;;;;4983791;28;20097;-77
2023/02/02 05:38:06;;;;;;;6.20;4.22;;;5.40;96.70;;;;;;4984463;28;20039;-77
2023/02/02 05:40:35;;;;;;;7.10;4.55;;;5.40;96.70;;;;;;4982572;28;20614;-78
2023/02/02 05:43:03;;;;;;;5.53;4.20;;;5.30;96.70;;;;;;4979704;28;20089;-77
2023/02/02 05:45:31;;;;;;;11.18;6.88;;;5.30;96.70;;;;;;4975530;28;20152;-78
2023/02/02 05:48:00;;;;;;;12.48;7.10;;;5.30;96.70;;;;;;4984284;28;20042;-78
2023/02/02 05:50:29;;;;;;;11.95;5.60;;;5.20;96.70;;;;;;4982686;28;20054;-77
2023/02/02 05:53:07;;;;;;;7.63;5.25;;;5.20;96.70;;;;;;4981507;28;20061;-78
2023/02/02 05:55:35;;;;;;;8.68;5.07;;;5.10;96.70;;;;;;4981744;28;20476;-78
2023/02/02 05:58:03;;;;;;;8.70;5.38;;;5.20;96.70;;;;;;4983668;28;20069;-78
2023/02/02 06:00:32;;;;;;;6.60;4.25;;;5.20;96.70;;;;;;4984314;28;20062;-79
2023/02/02 06:03:00;;;;;;;7.25;4.03;;;5.10;96.70;;;;;;4981270;28;20437;-78
2023/02/02 06:05:30;;;;;;;7.05;4.03;;;5.10;96.70;;;;;;4981456;28;20081;-79
2023/02/02 06:07:58;;;;;;;7.53;5.03;;;5.00;96.70;;;;;;4983852;28;20050;-77
2023/02/02 06:10:26;;;;;;;5.90;4.10;;;5.00;96.70;;;;;;4982661;28;20057;-78
2023/02/02 06:12:54;;;;;;;10.57;4.00;;;5.00;96.70;;;;;;4984645;28;20042;-77
2023/02/02 06:15:23;;;;;;;7.07;4.10;;;5.00;96.70;;;;;;4980802;28;20097;-78
2023/02/02 06:17:52;;;;;;;6.93;4.32;;;5.00;96.70;;;;;;4976139;28;20046;-78
2023/02/02 06:20:20;;;;;;;8.30;4.60;;;5.00;96.70;;;;;;4982860;28;20132;-78
2023/02/02 06:22:50;;;;;;;7.75;4.32;;;5.00;96.70;;;;;;4981525;28;20161;-77
2023/02/02 06:25:19;;;;;;;9.10;4.40;;;5.10;96.70;;;;;;4981494;28;20051;-78
2023/02/02 06:27:48;;;;;;;8.05;3.90;;;5.00;96.70;;;;;;4982739;28;20391;-78
2023/02/02 06:30:16;;;;;;;7.35;4.30;;;5.10;96.70;;;;;;4980449;28;20053;-78
2023/02/02 06:32:45;;;;;;;9.25;4.63;;;5.00;96.70;;;;;;4981939;28;20065;-78
2023/02/02 06:35:13;;;;;;;8.88;5.28;;;5.00;96.70;;;;;;4981022;28;20054;-78
2023/02/02 06:37:41;;;;;;;10.27;5.25;;;5.00;96.70;;;;;;4982319;28;20046;-78
2023/02/02 06:40:12;;;;;;;9.60;5.28;;;5.00;96.70;;;;;;4982016;28;20057;-78
2023/02/02 06:42:40;;;;;;;7.88;5.22;;;5.00;96.70;;;;;;4983436;28;20463;-77
2023/02/02 06:45:10;;;;;;;7.32;5.60;;;5.00;96.70;;;;;;4981989;28;20097;-76
2023/02/02 06:47:38;;;;;;;9.00;5.55;;;5.00;96.70;;;;;;4978493;28;20112;-77
2023/02/02 06:50:08;;;;;;;9.35;5.95;;;5.00;96.70;;;;;;4976091;28;20066;-76
2023/02/02 06:52:36;;;;;;;11.32;6.07;;;5.10;96.70;;;;;;4974532;28;20039;-78
2023/02/02 06:55:05;;;;;;;11.27;6.25;;;5.10;96.70;;;;;;4980209;28;20069;-76
2023/02/02 06:57:35;;;;;;;11.82;5.70;;;5.00;96.70;;;;;;4974233;28;20493;-78
2023/02/02 07:00:03;;;;;;;8.85;5.47;;;5.00;96.70;;;;;;4971201;28;20484;-78
2023/02/02 07:02:32;;;;;;;10.63;5.28;;;5.00;96.70;;;;;;4976678;28;20093;-82
2023/02/02 07:05:00;;;;;;;12.18;5.60;;;5.00;96.70;;;;;;4979523;28;20047;-78
2023/02/02 07:07:31;;;;;;;10.20;5.38;;;5.10;96.70;;;;;;4982077;28;20058;-76
2023/02/02 07:10:00;;;;;;;9.00;5.43;;;4.90;96.70;;;;;;4980738;28;20398;-76
2023/02/02 07:12:28;;;;;;;10.05;5.38;;;4.60;96.70;;;;;;4983858;28;20114;-77
2023/02/02 07:14:58;;;;;;;8.23;5.53;;;4.50;96.70;;;;;;4983817;28;20046;-77
2023/02/02 07:17:26;;;;;;;8.32;5.00;;;4.40;96.70;;;;;;4978474;28;20050;-77
2023/02/02 07:19:55;;;;;;;8.10;4.82;;;4.40;96.70;;;;;;4956294;28;20046;-78
2023/02/02 07:22:23;;;;;;;8.70;4.82;;;4.40;96.70;;;;;;4976464;28;20038;-73
2023/02/02 07:24:51;;;;;;;7.10;4.80;;;4.30;96.70;;;;;;4981330;28;21342;-73
2023/02/02 07:27:19;;;;;;;7.90;5.35;;;4.30;96.70;;;;;;4979463;28;20042;-73
2023/02/02 07:29:48;;;;;;;9.95;5.85;;;4.30;96.70;;;;;;4981952;28;20106;-74
2023/02/02 07:32:18;;;;;;;12.95;6.10;;;4.40;96.70;;;;;;4983826;28;20077;-73
2023/02/02 07:34:46;;;;;;;15.85;6.28;;;4.40;96.70;;;;;;4985096;28;20070;-73
2023/02/02 07:37:14;;;;;;;12.50;5.80;;;4.40;96.70;;;;;;4978970;28;20049;-74
2023/02/02 07:39:43;;;;;;;9.20;4.80;;;4.40;96.70;;;;;;4985542;28;20116;-75
2023/02/02 07:42:11;;;;;;;8.07;4.53;;;4.40;96.70;;;;;;4953672;28;20089;-74
2023/02/02 07:44:41;;;;;;;6.97;4.18;;;4.50;96.70;;;;;;4985405;28;20082;-74
2023/02/02 07:47:09;;;;;;;10.30;4.88;;;4.60;96.70;;;;;;4985766;28;20042;-74
2023/02/02 07:49:39;;;;;;;7.78;4.57;;;4.60;96.70;;;;;;4986448;28;20053;-74
2023/02/02 07:52:07;;;;;;;8.65;5.15;;;4.70;96.70;;;;;;4986614;28;21181;-75
2023/02/02 07:54:36;;;;;;;8.98;5.60;;;4.80;96.70;;;;;;4985369;28;20053;-75
2023/02/02 07:57:04;;;;;;;14.32;7.07;;;4.80;96.70;;;;;;4985337;28;20121;-73
2023/02/02 07:59:32;;;;;;;13.82;7.63;;;4.90;96.70;;;;;;4986564;28;20567;-75
2023/02/02 08:02:00;;;;;;;13.30;6.82;;;5.00;96.70;;;;;;4982297;28;20055;-75
2023/02/02 08:04:29;;;;;;;14.60;6.35;;;5.10;96.70;;;;;;4984913;28;20050;-75
2023/02/02 08:06:59;;;;;;;13.68;5.93;;;5.10;96.70;;;;;;4986154;28;20081;-72
2023/02/02 08:09:27;;;;;;;11.65;5.47;;;5.10;96.70;;;;;;4986679;28;20038;-75
2023/02/02 08:12:00;;;;;;;15.73;6.72;;;5.20;96.70;;;;;;4984872;28;20156;-73
2023/02/02 08:14:28;;;;;;;14.50;6.95;;;5.30;96.70;;;;;;4984237;28;20097;-73
2023/02/02 08:16:57;;;;;;;12.38;7.32;;;5.40;96.70;;;;;;4986207;28;20052;-73
2023/02/02 08:19:25;;;;;;;11.80;7.80;;;5.40;96.70;;;;;;4984153;28;20042;-73
2023/02/02 08:21:53;;;;;;;12.10;6.28;;;5.40;96.70;;;;;;4980651;28;20042;-72
2023/02/02 08:24:23;;;;;;;9.50;6.13;;;5.50;96.70;;;;;;4986240;28;20053;-73
2023/02/02 08:26:52;;;;;;;11.50;5.30;;;5.60;96.70;;;;;;4984178;28;20050;-74
2023/02/02 08:29:20;;;;;;;11.13;5.25;;;5.70;96.70;;;;;;4985100;28;20056;-80
2023/02/02 08:31:48;;;;;;;9.05;5.20;;;5.70;96.70;;;;;;4987211;28;20046;-79
2023/02/02 08:34:16;;;;;;;11.25;6.65;;;5.80;96.70;;;;;;4986169;28;20129;-76
2023/02/02 08:36:44;;;;;;;13.57;7.60;;;5.80;96.70;;;;;;4986510;28;20057;-81
2023/02/02 08:39:13;;;;;;;14.98;9.15;;;5.90;96.70;;;;;;4986162;28;20049;-77
2023/02/02 08:41:44;;;;;;;12.50;7.65;;;6.00;96.70;;;;;;4983997;28;20077;-78
2023/02/02 08:44:14;;;;;;;12.27;7.50;;;6.00;96.70;;;;;;4983154;28;20142;-78
2023/02/02 08:46:42;;;;;;;8.73;6.30;;;6.10;96.70;;;;;;4984617;28;20136;-80
2023/02/02 08:49:11;;;;;;;9.02;5.75;;;6.10;96.70;;;;;;4984857;28;20488;-77
2023/02/02 08:51:40;;;;;;;7.95;5.72;;;6.20;96.70;;;;;;4986376;28;20050;-79
2023/02/02 08:54:08;;;;;;;8.43;5.38;;;6.20;96.70;;;;;;4985638;28;20093;-78
2023/02/02 08:56:36;;;;;;;9.80;5.70;;;6.30;96.70;;;;;;4986290;28;20093;-78
2023/02/02 08:59:06;;;;;;;9.98;6.40;;;6.30;96.70;;;;;;4984714;28;20407;-81
2023/02/02 09:01:35;;;;;;;15.88;7.38;;;6.40;96.70;;;;;;4986021;28;20049;-80
2023/02/02 09:04:05;;;;;;;10.65;6.82;;;6.50;96.70;;;;;;4986683;28;20053;-81
2023/02/02 09:06:35;;;;;;;11.90;7.40;;;6.60;96.70;;;;;;4986108;28;20054;-80
2023/02/02 09:09:04;;;;;;;11.18;7.82;;;6.70;96.70;;;;;;4979763;28;20128;-81
2023/02/02 09:11:33;;;;;;;11.07;8.73;;;6.80;96.70;;;;;;4969758;28;20054;-80
2023/02/02 09:14:02;;;;;;;13.43;8.82;;;6.90;96.70;;;;;;4970134;28;20061;-82
2023/02/02 09:16:33;;;;;;;12.10;8.68;;;7.00;96.70;;;;;;5000072;28;20057;-81
2023/02/02 09:19:02;;;;;;;15.85;9.27;;;7.10;96.70;;;;;;4984424;28;20408;-77
2023/02/02 09:21:35;;;;;;;13.65;8.85;;;7.10;96.70;;;;;;4980909;28;20050;-77
2023/02/02 09:24:08;;;;;;;12.80;9.02;;;7.30;96.70;;;;;;4984057;28;20053;-77
2023/02/02 09:26:39;;;;;;;16.83;9.98;;;7.40;96.70;;;;;;4985995;28;20038;-79
2023/02/02 09:29:11;;;;;;;15.68;9.80;;;7.50;96.70;;;;;;4984556;28;20062;-81
2023/02/02 09:31:41;;;;;;;16.83;10.73;;;7.60;96.70;;;;;;4984933;28;20053;-80
2023/02/02 09:34:11;;;;;;;18.92;11.88;;;7.70;96.70;;;;;;4984428;28;20046;-80
2023/02/02 09:36:40;;;;;;;16.90;11.15;;;7.80;96.70;;;;;;4986314;28;20046;-80
2023/02/02 09:39:11;;;;;;;18.98;12.35;;;7.90;96.70;;;;;;4986589;28;20044;-81
2023/02/02 09:42:11;;;;;;;16.45;11.05;;;8.10;96.70;;;;;;4984664;28;20057;-80
2023/02/02 09:45:06;;;;;;;14.68;10.77;;;8.20;96.70;;;;;;4981404;28;20042;-80
2023/02/02 09:47:54;;;;;;;13.13;10.23;;;8.30;96.70;;;;;;4984315;28;20050;-81
2023/02/02 09:50:37;;;;;;;15.38;9.85;;;8.40;96.70;;;;;;4984596;28;20058;-77
2023/02/02 09:53:15;;;;;;;13.88;9.77;;;8.60;96.70;;;;;;4982686;28;20408;-77
2023/02/02 09:55:45;;;;;;;14.55;9.75;;;8.70;96.70;;;;;;4978107;28;20172;-82
2023/02/02 09:58:18;;;;;;;16.02;10.50;;;8.80;96.70;;;;;;4984589;28;20073;-77
2023/02/02 10:00:54;;;;;;;14.75;9.73;;;8.90;96.70;;;;;;4984520;28;20073;-77
2023/02/02 10:03:28;;;;;;;16.27;10.48;;;9.00;96.70;;;;;;4983970;28;20053;-77
2023/02/02 10:06:02;;;;;;;12.48;9.15;;;9.20;96.70;;;;;;4982779;28;20035;-77
2023/02/02 10:08:35;;;;;;;10.43;7.97;;;9.30;96.70;;;;;;4984639;28;20050;-77
2023/02/02 10:11:17;;;;;;;13.68;8.68;;;9.40;96.70;;;;;;4982844;28;20130;-77
2023/02/02 10:13:47;;;;;;;12.95;8.57;;;9.60;96.70;;;;;;4977342;28;20476;-77
2023/02/02 10:16:18;;;;;;;12.90;8.48;;;9.70;96.70;;;;;;4982554;28;20452;-78
2023/02/02 10:18:53;;;;;;;11.23;8.40;;;9.80;96.70;;;;;;4982669;28;20085;-77
2023/02/02 10:21:29;;;;;;;13.60;9.60;;;9.90;96.70;;;;;;4966488;28;20069;-79
2023/02/02 10:23:57;;;;;;;22.55;14.50;;;10.00;96.70;;;;;;4975663;28;20555;-78
2023/02/02 10:26:35;;;;;;;19.15;12.45;;;10.10;96.70;;;;;;4983197;28;20497;-73
2023/02/02 10:29:14;;;;;;;23.58;14.68;;;10.20;96.70;;;;;;4984327;28;20572;-72
2023/02/02 10:31:48;;;;;;;22.40;12.60;;;10.20;96.70;;;;;;4982352;28;20579;-74
2023/02/02 10:34:24;;;;;;;16.98;9.80;;;10.40;96.70;;;;;;4982403;28;20045;-72
2023/02/02 10:37:15;;;;;;;13.20;8.65;;;10.50;96.70;;;;;;4979150;28;20526;-72
2023/02/02 10:39:57;;;;;;;17.67;9.52;;;10.70;96.70;;;;;;4982297;28;20105;-72
2023/02/02 10:42:34;;;;;;;14.82;8.95;;;10.70;96.70;;;;;;4982524;28;20049;-73
2023/02/02 10:45:04;;;;;;;;;;;10.90;96.70;;;;;;4984173;28;20050;-74
2023/02/02 10:47:33;;;;;;;14.60;9.65;;;11.00;96.70;;;;;;4983747;28;20485;-74
2023/02/02 10:50:15;;;;;;;13.35;9.15;;;11.10;96.70;;;;;;4982103;28;20108;-74
2023/02/02 10:52:47;;;;;;;18.85;9.68;;;11.20;96.70;;;;;;4982165;28;20512;-73
2023/02/02 10:55:27;;;;;;;18.15;10.93;;;11.30;96.70;;;;;;4981881;28;20396;-73
2023/02/02 10:58:05;;;;;;;16.67;9.77;;;11.30;96.70;;;;;;4958425;28;20519;-73
2023/02/02 11:00:38;;;;;;;14.52;8.85;;;11.30;96.70;;;;;;4982208;28;20058;-74
2023/02/02 11:03:09;;;;;;;15.52;10.40;;;11.20;96.70;;;;;;4982507;28;20505;-73
2023/02/02 11:08:31;;;;;;;12.15;8.73;;;11.40;96.70;;;;;;4988641;28;20112;-74
2023/02/02 11:11:10;;;;;;;15.07;9.02;;;11.40;96.70;;;;;;4988210;28;20650;-75
2023/02/02 11:13:44;;;;;;;13.32;7.95;;;11.50;96.70;;;;;;4989474;28;20073;-73
2023/02/02 11:16:21;;;;;;;12.30;7.72;;;11.60;96.70;;;;;;4988325;28;20544;-73
2023/02/02 11:18:50;;;;;;;22.67;13.43;;;11.70;96.70;;;;;;4989961;28;20404;-74
2023/02/02 11:21:22;;;;;;;16.38;9.38;;;11.80;96.70;;;;;;4989716;28;20046;-73
2023/02/02 11:23:55;;;;;;;13.65;8.40;;;11.90;96.70;;;;;;4987956;28;20121;-74
2023/02/02 11:26:25;;;;;;;16.23;9.50;;;12.00;96.70;;;;;;4981253;28;20161;-73
2023/02/02 11:28:54;;;;;;;12.13;7.13;;;12.00;96.70;;;;;;4988471;28;20495;-73
2023/02/02 11:31:31;;;;;;;11.98;7.40;;;12.10;96.70;;;;;;4989925;28;20057;-73
2023/02/02 11:34:15;;;;;;;14.60;7.70;;;12.30;96.70;;;;;;4989034;28;20092;-73
2023/02/02 11:37:09;;;;;;;14.65;6.57;;;12.50;96.70;;;;;;4982947;28;20053;-74
2023/02/02 11:39:38;;;;;;;13.35;5.93;;;12.60;96.70;;;;;;4987919;28;20053;-73
2023/02/02 11:42:12;;;;;;;9.23;5.82;;;12.70;96.70;;;;;;4989172;28;20092;-74
2023/02/02 11:44:46;;;;;;;10.60;6.45;;;12.90;96.70;;;;;;4988321;28;20050;-74
2023/02/02 11:47:20;;;;;;;10.63;5.68;;;13.10;96.70;;;;;;4989617;28;20057;-73
2023/02/02 11:49:51;;;;;;;9.93;5.63;;;13.20;96.70;;;;;;4989130;28;20050;-73
2023/02/02 11:52:23;;;;;;;9.60;5.70;;;13.40;96.70;;;;;;4989412;28;20050;-73
2023/02/02 11:54:56;;;;;;;10.93;5.60;;;13.50;96.70;;;;;;4988237;28;20049;-74
2023/02/02 11:57:27;;;;;;;10.48;5.28;;;13.60;96.70;;;;;;4989522;28;20472;-74
2023/02/02 12:00:14;;;;;;;8.48;4.78;;;13.60;96.70;;;;;;4987020;28;20074;-75
2023/02/02 12:02:46;;;;;;;9.55;4.70;;;13.60;96.70;;;;;;4981976;28;20046;-74
2023/02/02 12:05:33;;;;;;;12.38;4.70;;;13.80;96.70;;;;;;4985312;28;20057;-73
2023/02/02 12:08:03;;;;;;;8.07;4.10;;;13.80;96.70;;;;;;4986350;28;20054;-73
2023/02/02 12:10:40;;;;;;;8.10;4.10;;;14.00;96.70;;;;;;4987673;28;20496;-73
2023/02/02 12:13:16;;;;;;;8.35;4.20;;;14.10;96.70;;;;;;4981202;28;20062;-73
2023/02/02 12:15:57;;;;;;;14.07;7.13;;;14.20;96.70;;;;;;4986770;28;20050;-73
2023/02/02 12:18:39;;;;;;;14.60;8.63;;;14.30;96.70;;;;;;4978530;28;20639;-73
2023/02/02 12:21:16;;;;;;;10.60;4.50;;;14.40;96.70;;;;;;4982927;28;20070;-73
2023/02/02 12:23:54;;;;;;;;;;;14.50;96.70;;;;;;4980225;28;20126;-73
2023/02/02 12:26:27;;;;;;;7.97;3.53;;;14.40;96.70;;;;;;4983269;28;20473;-74
2023/02/02 12:29:17;;;;;;;5.28;3.10;;;14.40;96.70;;;;;;4984936;28;20443;-74
2023/02/02 12:31:59;;;;;;;8.10;3.00;;;14.40;96.70;;;;;;4983642;28;20122;-73
2023/02/02 12:34:39;;;;;;;6.80;2.80;;;14.60;96.70;;;;;;4977781;28;20054;-74
2023/02/02 12:37:15;;;;;;;7.00;3.47;;;14.60;96.70;;;;;;4976784;28;20046;-74
2023/02/02 12:40:02;;;;;;;9.90;3.50;;;14.70;96.70;;;;;;4984696;28;20511;-73
2023/02/02 12:42:56;;;;;;;8.90;3.20;;;14.80;96.70;;;;;;4979820;28;20771;-75
2023/02/02 12:45:53;;;;;;;7.95;3.00;;;14.90;96.70;;;;;;4978672;28;20117;-75
2023/02/02 12:48:37;;;;;;;9.18;4.00;;;15.00;96.70;;;;;;4983302;28;20135;-73
2023/02/02 12:51:30;;;;;;;10.25;3.58;;;15.10;96.70;;;;;;4983454;28;20100;-74
2023/02/02 12:54:36;;;;;;;7.63;3.42;;;15.00;96.70;;;;;;4983244;28;20042;-74
2023/02/02 12:57:30;;;;;;;8.95;3.65;;;14.80;96.70;;;;;;4971911;28;20054;-73
2023/02/02 13:00:17;;;;;;;7.07;3.75;;;15.00;96.70;;;;;;4983455;28;20141;-72
2023/02/02 13:03:00;;;;;;;11.63;4.55;;;15.20;96.70;;;;;;4976936;28;20532;-73
2023/02/02 13:05:44;;;;;;;8.48;4.10;;;15.30;96.70;;;;;;4984280;28;20120;-74
2023/02/02 13:08:18;;;;;;;6.53;3.78;;;15.10;96.70;;;;;;4983537;28;20050;-74
2023/02/02 13:10:52;;;;;;;8.40;3.58;;;15.20;96.70;;;;;;4977437;28;20050;-74
2023/02/02 13:13:25;;;;;;;6.78;3.40;;;15.30;96.70;;;;;;4978578;28;20889;-75
2023/02/02 13:15:58;;;;;;;11.50;3.95;;;15.50;96.70;;;;;;4982047;28;20060;-72
2023/02/02 13:18:31;;;;;;;10.02;3.78;;;15.30;96.70;;;;;;4983182;28;20116;-72
2023/02/02 13:21:02;;;;;;;8.57;3.72;;;14.90;96.70;;;;;;4981920;28;20039;-75
2023/02/02 13:23:33;;;;;;;10.10;3.90;;;14.80;96.70;;;;;;4979769;28;20054;-76
2023/02/02 13:26:06;;;;;;;9.60;3.83;;;14.80;96.70;;;;;;4968445;28;20054;-83
2023/02/02 13:28:42;;;;;;;9.90;3.63;;;14.80;96.70;;;;;;4986010;28;20060;-82
2023/02/02 13:31:17;;;;;;;5.35;3.47;;;15.00;96.70;;;;;;4986319;28;20050;-83